地図

経路データ

SID SEASON NUMBER BASIN SUBBASIN NAME ISO_TIME NATURE LAT LON WMO_WIND WMO_PRES WMO_AGENCY TRACK_TYPE DIST2LAND LANDFALL IFLAG USA_AGENCY USA_ATCF_ID USA_LAT USA_LON USA_RECORD USA_STATUS USA_WIND USA_PRES USA_SSHS USA_R34_NE USA_R34_SE USA_R34_SW USA_R34_NW USA_R50_NE USA_R50_SE USA_R50_SW USA_R50_NW USA_R64_NE USA_R64_SE USA_R64_SW USA_R64_NW USA_POCI USA_ROCI USA_RMW USA_EYE TOKYO_LAT TOKYO_LON TOKYO_GRADE TOKYO_WIND TOKYO_PRES TOKYO_R50_DIR TOKYO_R50_LONG TOKYO_R50_SHORT TOKYO_R30_DIR TOKYO_R30_LONG TOKYO_R30_SHORT TOKYO_LAND CMA_LAT CMA_LON CMA_CAT CMA_WIND CMA_PRES HKO_LAT HKO_LON HKO_CAT HKO_WIND HKO_PRES NEWDELHI_LAT NEWDELHI_LON NEWDELHI_GRADE NEWDELHI_WIND NEWDELHI_PRES NEWDELHI_CI NEWDELHI_DP NEWDELHI_POCI REUNION_LAT REUNION_LON REUNION_TYPE REUNION_WIND REUNION_PRES REUNION_TNUM REUNION_CI REUNION_RMW REUNION_R34_NE REUNION_R34_SE REUNION_R34_SW REUNION_R34_NW REUNION_R50_NE REUNION_R50_SE REUNION_R50_SW REUNION_R50_NW REUNION_R64_NE REUNION_R64_SE REUNION_R64_SW REUNION_R64_NW BOM_LAT BOM_LON BOM_TYPE BOM_WIND BOM_PRES BOM_TNUM BOM_CI BOM_RMW BOM_R34_NE BOM_R34_SE BOM_R34_SW BOM_R34_NW BOM_R50_NE BOM_R50_SE BOM_R50_SW BOM_R50_NW BOM_R64_NE BOM_R64_SE BOM_R64_SW BOM_R64_NW BOM_ROCI BOM_POCI BOM_EYE BOM_POS_METHOD BOM_PRES_METHOD NADI_LAT NADI_LON NADI_CAT NADI_WIND NADI_PRES WELLINGTON_LAT WELLINGTON_LON WELLINGTON_WIND WELLINGTON_PRES DS824_LAT DS824_LON DS824_STAGE DS824_WIND DS824_PRES TD9636_LAT TD9636_LON TD9636_STAGE TD9636_WIND TD9636_PRES TD9635_LAT TD9635_LON TD9635_WIND TD9635_PRES TD9635_ROCI NEUMANN_LAT NEUMANN_LON NEUMANN_CLASS NEUMANN_WIND NEUMANN_PRES MLC_LAT MLC_LON MLC_CLASS MLC_WIND MLC_PRES USA_GUST BOM_GUST BOM_GUST_PER REUNION_GUST REUNION_GUST_PER USA_SEAHGT USA_SEARAD_NE USA_SEARAD_SE USA_SEARAD_SW USA_SEARAD_NW STORM_SPEED STORM_DIR
1907060S18041 1907 12 SI MM NOT_NAMED 1907-02-28 18:00:00 NR -18.0000 40.9000 main 204 204 __________O___ -1 -18.0000 40.9000 7 3 0
1907060S18041 1907 12 SI MM NOT_NAMED 1907-02-28 21:00:00 NR -18.1282 40.8971 main 213 213 __________P___ -1 -18.1282 40.8971 7 3 178
1907060S18041 1907 12 SI MM NOT_NAMED 1907-03-01 00:00:00 NR -18.2851 40.9053 main 232 232 __________P___ -1 -18.2851 40.9053 7 4 174
1907060S18041 1907 12 SI MM NOT_NAMED 1907-03-01 03:00:00 NR -18.4994 40.9358 main 252 252 __________P___ -1 -18.4994 40.9358 7 5 171
1907060S18041 1907 12 SI MM NOT_NAMED 1907-03-01 06:00:00 NR -18.8000 41.0000 main 284 284 __________O___ -1 -18.8000 41.0000 7 7 167
1907060S18041 1907 12 SI MM NOT_NAMED 1907-03-01 09:00:00 NR -19.2024 41.1073 main 318 312 __________P___ -1 -19.2024 41.1073 7 9 164
1907060S18041 1907 12 SI MM NOT_NAMED 1907-03-01 12:00:00 NR -19.6698 41.2598 main 297 262 __________P___ -1 -19.6698 41.2598 7 10 161
1907060S18041 1907 12 SI MM NOT_NAMED 1907-03-01 15:00:00 NR -20.1523 41.4574 main 247 207 __________P___ -1 -20.1523 41.4574 7 10 156
1907060S18041 1907 12 SI MM NOT_NAMED 1907-03-01 18:00:00 NR -20.6000 41.7000 main 207 175 __________O___ -1 -20.6000 41.7000 7 9 150
1907060S18041 1907 12 SI MM NOT_NAMED 1907-03-01 21:00:00 NR -20.9262 41.9346 main 175 136 __________P___ -1 -20.9262 41.9346 7 8 142
1907060S18041 1907 12 SI MM NOT_NAMED 1907-03-02 00:00:00 NR -21.2138 42.2173 main 136 98 __________P___ -1 -21.2138 42.2173 7 8 134
1907060S18041 1907 12 SI MM NOT_NAMED 1907-03-02 03:00:00 NR -21.4946 42.5663 main 89 38 __________P___ -1 -21.4946 42.5663 7 9 129
1907060S18041 1907 12 SI MM NOT_NAMED 1907-03-02 06:00:00 NR -21.8000 43.0000 main 38 0 __________O___ -1 -21.8000 43.0000 7 11 128
1907060S18041 1907 12 SI MM NOT_NAMED 1907-03-02 09:00:00 NR -22.1924 43.5456 main 0 0 __________P___ -1 -22.1924 43.5456 7 14 127
1907060S18041 1907 12 SI MM NOT_NAMED 1907-03-02 12:00:00 NR -22.6086 44.1732 main 0 0 __________P___ -1 -22.6086 44.1732 7 15 125
1907060S18041 1907 12 SI MM NOT_NAMED 1907-03-02 15:00:00 NR -23.0204 44.8395 main 0 0 __________P___ -1 -23.0204 44.8395 7 15 123
1907060S18041 1907 12 SI MM NOT_NAMED 1907-03-02 18:00:00 NR -23.4000 45.5000 main 0 0 __________O___ -1 -23.4000 45.5000 7 14 121
1907060S18041 1907 12 SI MM NOT_NAMED 1907-03-02 21:00:00 NR -23.7274 46.1191 main 0 0 __________P___ -1 -23.7274 46.1191 7 13 119
1907060S18041 1907 12 SI MM NOT_NAMED 1907-03-03 00:00:00 NR -24.0102 46.7001 main 0 0 __________P___ -1 -24.0102 46.7001 7 12 117
1907060S18041 1907 12 SI MM NOT_NAMED 1907-03-03 03:00:00 NR -24.2631 47.2559 main 0 0 __________P___ -1 -24.2631 47.2559 7 11 116
1907060S18041 1907 12 SI MM NOT_NAMED 1907-03-03 06:00:00 NR -24.5000 47.8000 main 50 __________O___ -1 -24.5000 47.8000 7 11 116

IBTrACS Databaseについて

本データベースは、米国NOAAが公開する1842年以降の世界の熱帯低気圧のベストトラックデータアーカイブInternational Best Track Archive for Climate Stewardship (IBTrACS)を、ウェブで閲覧しやすい形式に変換したものです。

最終更新日:2021-11-26